Time;durP1;ratioP1;P1;durP2;ratioP2;P2;SDS_P1;SDS_P2;PMS_P1;PMS_P2;Temp;Humidity;BMP_temperature;BMP_pressure;BME280_temperature;BME280_humidity;BME280_pressure;Samples;Min_cycle;Max_cycle;Signal;HPM_P1;HPM_P2
2023/01/22 00:00:28;;;;;;;37.30;23.93;;;0.60;99.90;;;;;;4994447;28;20172;-66
2023/01/22 00:02:54;;;;;;;39.40;23.07;;;0.60;99.90;;;;;;4994084;28;20544;-66
2023/01/22 00:05:20;;;;;;;36.47;21.47;;;0.60;99.90;;;;;;4996761;28;20598;-66
2023/01/22 00:07:46;;;;;;;31.70;21.70;;;0.60;99.90;;;;;;4997864;28;20184;-65
2023/01/22 00:10:12;;;;;;;35.17;23.77;;;0.50;99.90;;;;;;4998608;28;20173;-66
2023/01/22 00:12:37;;;;;;;32.93;22.93;;;0.50;99.90;;;;;;4997863;28;20176;-67
2023/01/22 00:15:04;;;;;;;35.63;22.07;;;0.50;99.90;;;;;;4997531;28;20192;-66
2023/01/22 00:17:29;;;;;;;32.00;22.67;;;0.50;99.90;;;;;;4998061;28;20225;-66
2023/01/22 00:19:55;;;;;;;29.97;19.97;;;0.40;99.90;;;;;;4997739;28;20201;-66
2023/01/22 00:22:21;;;;;;;28.97;21.27;;;0.40;99.90;;;;;;4997785;28;20183;-66
2023/01/22 00:24:47;;;;;;;28.20;20.43;;;0.50;99.90;;;;;;4997567;28;20204;-66
2023/01/22 00:27:13;;;;;;;28.00;20.43;;;0.40;99.90;;;;;;4997659;28;20649;-66
2023/01/22 00:29:39;;;;;;;30.77;20.17;;;0.40;99.90;;;;;;4996252;28;20181;-66
2023/01/22 00:32:05;;;;;;;26.33;19.47;;;0.40;99.90;;;;;;4997477;28;20164;-66
2023/01/22 00:34:31;;;;;;;26.60;19.20;;;0.40;99.90;;;;;;4997663;28;20195;-66
2023/01/22 00:36:57;;;;;;;27.07;19.43;;;0.40;99.90;;;;;;4997535;28;20207;-66
2023/01/22 00:39:22;;;;;;;27.17;19.13;;;0.40;99.90;;;;;;4997194;28;20255;-66
2023/01/22 00:41:48;;;;;;;23.97;17.87;;;0.40;99.90;;;;;;4997582;28;20600;-66
2023/01/22 00:44:14;;;;;;;28.37;19.30;;;0.40;99.90;;;;;;4997763;28;20729;-66
2023/01/22 00:46:40;;;;;;;23.73;18.30;;;0.40;99.90;;;;;;5012442;28;20673;-66
2023/01/22 00:49:06;;;;;;;25.03;19.00;;;0.40;99.90;;;;;;4996277;28;20183;-66
2023/01/22 00:51:32;;;;;;;27.23;18.70;;;0.40;99.90;;;;;;4995928;28;20208;-66
2023/01/22 00:53:58;;;;;;;25.97;18.90;;;0.40;99.90;;;;;;4997303;28;20569;-65
2023/01/22 00:56:24;;;;;;;26.20;19.23;;;0.40;99.90;;;;;;4997515;28;20212;-65
2023/01/22 00:58:49;;;;;;;22.77;18.63;;;0.40;99.90;;;;;;4997007;28;20208;-65
2023/01/22 01:01:16;;;;;;;25.83;19.23;;;0.40;99.90;;;;;;4997490;28;20212;-65
2023/01/22 01:03:42;;;;;;;26.67;19.33;;;0.40;99.90;;;;;;4996911;28;20731;-65
2023/01/22 01:06:19;;;;;;;26.10;19.93;;;0.40;99.90;;;;;;4996738;28;20200;-65
2023/01/22 01:08:46;;;;;;;30.00;18.80;;;0.40;99.90;;;;;;4996742;28;20230;-64
2023/01/22 01:11:20;;;;;;;30.43;19.67;;;0.40;99.90;;;;;;5011785;28;20645;-66
2023/01/22 01:13:46;;;;;;;27.23;18.97;;;0.40;99.90;;;;;;5011940;28;20201;-66
2023/01/22 01:16:15;;;;;;;23.70;19.70;;;0.40;99.90;;;;;;4996138;28;20196;-67
2023/01/22 01:18:41;;;;;;;24.90;18.90;;;0.30;99.90;;;;;;5011809;28;20192;-65
2023/01/22 01:21:08;;;;;;;28.73;20.13;;;0.40;99.90;;;;;;4996690;28;20541;-65
2023/01/22 01:23:35;;;;;;;27.03;19.10;;;0.30;99.90;;;;;;4996344;28;20196;-65
2023/01/22 01:26:07;;;;;;;28.00;19.57;;;0.30;99.90;;;;;;4996409;28;20224;-65
2023/01/22 01:28:37;;;;;;;24.20;19.10;;;0.30;99.90;;;;;;4996944;28;20175;-65
2023/01/22 01:31:08;;;;;;;26.17;20.50;;;0.30;99.90;;;;;;4996450;28;20168;-65
2023/01/22 01:33:34;;;;;;;30.10;20.33;;;0.30;99.90;;;;;;4996371;28;20189;-65
2023/01/22 01:36:03;;;;;;;26.80;20.53;;;0.30;99.90;;;;;;4996319;28;20187;-65
2023/01/22 01:38:30;;;;;;;23.57;18.10;;;0.30;99.90;;;;;;4996169;28;20181;-65
2023/01/22 01:40:56;;;;;;;27.50;19.50;;;0.30;99.90;;;;;;4996800;28;20542;-65
2023/01/22 01:43:22;;;;;;;26.57;19.37;;;0.30;99.90;;;;;;4996006;28;20238;-65
2023/01/22 01:45:49;;;;;;;25.30;18.50;;;0.20;99.90;;;;;;4995957;28;20242;-65
2023/01/22 01:48:27;;;;;;;23.27;17.57;;;0.20;99.90;;;;;;4996140;28;20177;-65
2023/01/22 01:51:05;;;;;;;26.67;19.10;;;0.20;99.90;;;;;;4996226;28;20164;-65
2023/01/22 01:53:31;;;;;;;25.93;18.73;;;0.20;99.90;;;;;;4994709;28;20179;-65
2023/01/22 01:56:00;;;;;;;25.37;18.07;;;0.20;99.90;;;;;;4996291;28;20185;-65
2023/01/22 01:58:28;;;;;;;25.87;19.07;;;0.20;99.90;;;;;;4995887;28;20181;-65
2023/01/22 02:00:59;;;;;;;24.30;18.77;;;0.30;99.90;;;;;;4995878;28;20219;-65
2023/01/22 02:03:25;;;;;;;25.57;18.87;;;0.30;99.90;;;;;;4994545;28;20203;-66
2023/01/22 02:05:51;;;;;;;26.23;18.83;;;0.20;99.90;;;;;;4996139;28;20208;-66
2023/01/22 02:08:17;;;;;;;27.57;18.80;;;0.20;99.90;;;;;;4996220;28;20187;-65
2023/01/22 02:10:44;;;;;;;24.03;19.40;;;0.20;99.90;;;;;;4996188;28;20184;-66
2023/01/22 02:13:16;;;;;;;24.37;18.17;;;0.20;99.90;;;;;;5011635;28;20191;-66
2023/01/22 02:15:42;;;;;;;24.23;18.07;;;0.20;99.90;;;;;;5001681;28;20283;-64
2023/01/22 02:18:08;;;;;;;23.87;17.47;;;0.20;99.90;;;;;;4998180;28;20612;-66
2023/01/22 02:20:36;;;;;;;22.67;17.37;;;0.20;99.90;;;;;;4994725;28;20188;-65
2023/01/22 02:23:02;;;;;;;23.30;17.37;;;0.20;99.90;;;;;;5010705;28;20176;-66
2023/01/22 02:25:28;;;;;;;23.93;17.47;;;0.20;99.90;;;;;;4994118;28;20208;-66
2023/01/22 02:27:54;;;;;;;23.80;17.90;;;0.20;99.90;;;;;;4994989;28;20303;-66
2023/01/22 02:30:20;;;;;;;24.67;17.90;;;0.20;99.90;;;;;;4995409;28;20260;-66
2023/01/22 02:32:45;;;;;;;26.20;18.23;;;0.20;99.90;;;;;;4995218;28;20177;-66
2023/01/22 02:35:11;;;;;;;25.70;18.83;;;0.20;99.90;;;;;;4994045;28;20672;-66
2023/01/22 02:37:37;;;;;;;28.27;19.00;;;0.20;99.90;;;;;;4995153;28;20192;-66
2023/01/22 02:40:03;;;;;;;29.90;19.47;;;0.10;99.90;;;;;;4994920;28;20231;-66
2023/01/22 02:42:28;;;;;;;23.37;18.37;;;0.10;99.90;;;;;;4995376;28;20212;-68
2023/01/22 02:44:54;;;;;;;22.37;18.90;;;0.10;99.90;;;;;;4995447;28;20660;-66
2023/01/22 02:47:20;;;;;;;28.93;19.07;;;0.10;99.90;;;;;;4995061;28;20606;-66
2023/01/22 02:49:46;;;;;;;25.60;18.43;;;0.10;99.90;;;;;;4995158;28;20183;-66
2023/01/22 02:52:12;;;;;;;25.80;18.50;;;0.10;99.90;;;;;;4994874;28;20180;-66
2023/01/22 02:54:38;;;;;;;25.47;18.97;;;0.10;99.90;;;;;;5009757;28;20259;-66
2023/01/22 02:57:03;;;;;;;26.93;19.67;;;0.20;99.90;;;;;;5009952;28;20184;-67
2023/01/22 02:59:29;;;;;;;26.53;18.87;;;0.20;99.90;;;;;;4994787;28;20626;-66
2023/01/22 03:01:56;;;;;;;26.83;19.60;;;0.20;99.90;;;;;;5009958;28;20180;-66
2023/01/22 03:04:22;;;;;;;27.00;18.97;;;0.20;99.90;;;;;;4994670;28;20193;-66
2023/01/22 03:06:47;;;;;;;26.03;17.93;;;0.20;99.90;;;;;;4995688;28;20253;-66
2023/01/22 03:09:15;;;;;;;26.93;18.43;;;0.20;99.90;;;;;;4993961;28;20188;-68
2023/01/22 03:11:44;;;;;;;25.10;18.77;;;0.20;99.90;;;;;;4994751;28;20203;-67
2023/01/22 03:22:25;;;;;;;25.63;18.53;;;0.20;99.90;;;;;;4994354;28;20286;-66
2023/01/22 03:24:51;;;;;;;24.40;18.70;;;0.20;99.90;;;;;;4992821;28;20236;-66
2023/01/22 03:27:19;;;;;;;27.57;19.80;;;0.10;99.90;;;;;;4994265;28;20172;-66
2023/01/22 03:29:45;;;;;;;27.93;19.93;;;0.10;99.90;;;;;;4994606;28;20246;-66
2023/01/22 03:32:11;;;;;;;25.30;18.80;;;0.10;99.90;;;;;;4994289;28;20181;-66
2023/01/22 03:34:37;;;;;;;26.90;19.77;;;0.10;99.90;;;;;;4994082;28;20196;-66
2023/01/22 03:37:04;;;;;;;27.40;20.47;;;0.10;99.90;;;;;;4992916;28;20187;-67
2023/01/22 03:39:30;;;;;;;25.63;19.13;;;0.10;99.90;;;;;;5008866;28;20184;-66
2023/01/22 03:41:56;;;;;;;26.13;19.20;;;0.10;99.90;;;;;;4992909;28;20256;-66
2023/01/22 03:44:22;;;;;;;25.10;19.07;;;0.10;99.90;;;;;;4992722;28;20243;-68
2023/01/22 03:46:48;;;;;;;26.13;19.03;;;0.10;99.90;;;;;;4994102;28;20208;-66
2023/01/22 03:49:14;;;;;;;27.47;19.40;;;0.10;99.90;;;;;;4994120;28;20228;-66
2023/01/22 03:51:40;;;;;;;26.17;19.63;;;0.10;99.90;;;;;;4994143;28;20226;-66
2023/01/22 03:54:06;;;;;;;24.10;18.43;;;0.10;99.90;;;;;;4994027;28;20204;-67
2023/01/22 03:56:31;;;;;;;27.87;20.37;;;0.10;99.90;;;;;;4994111;28;20176;-66
2023/01/22 03:58:58;;;;;;;26.67;19.77;;;0.10;99.90;;;;;;4994019;28;20195;-66
2023/01/22 04:01:26;;;;;;;26.63;19.97;;;0.10;99.90;;;;;;4994060;28;20556;-66
2023/01/22 04:03:52;;;;;;;29.97;20.50;;;0.10;99.90;;;;;;4994151;28;20203;-66
2023/01/22 04:06:18;;;;;;;29.57;19.27;;;0.10;99.90;;;;;;4993771;28;20208;-66
2023/01/22 04:08:46;;;;;;;26.27;19.83;;;0.10;99.90;;;;;;4993808;28;20181;-66
2023/01/22 04:11:13;;;;;;;28.53;19.37;;;0.10;99.90;;;;;;4994276;28;20178;-66
2023/01/22 04:13:41;;;;;;;26.87;19.57;;;0.10;99.90;;;;;;4994537;28;20224;-66
2023/01/22 04:16:07;;;;;;;25.83;19.57;;;0.10;99.90;;;;;;4993859;28;20212;-66
2023/01/22 04:18:33;;;;;;;26.33;19.53;;;0.10;99.90;;;;;;4994154;28;20183;-66
2023/01/22 04:20:59;;;;;;;26.27;19.70;;;0.10;99.90;;;;;;4994191;28;20588;-66
2023/01/22 04:23:25;;;;;;;25.63;19.87;;;0.10;99.90;;;;;;4994137;28;20185;-66
2023/01/22 04:25:51;;;;;;;27.30;21.17;;;0.10;99.90;;;;;;4994131;28;20712;-66
2023/01/22 04:28:17;;;;;;;25.77;19.83;;;0.10;99.90;;;;;;4992879;28;20185;-66
2023/01/22 04:30:45;;;;;;;28.00;19.00;;;0.10;99.90;;;;;;4994411;28;20180;-66
2023/01/22 04:33:11;;;;;;;26.90;20.37;;;0.10;99.90;;;;;;4993860;28;20180;-66
2023/01/22 04:35:37;;;;;;;25.27;20.27;;;0.10;99.90;;;;;;5008836;28;20208;-66
2023/01/22 04:38:05;;;;;;;28.03;20.30;;;0.10;99.90;;;;;;5008820;28;20184;-66
2023/01/22 04:40:31;;;;;;;30.73;21.90;;;0.10;99.90;;;;;;4992290;28;20184;-66
2023/01/22 04:43:01;;;;;;;30.73;21.43;;;0.10;99.90;;;;;;5008614;28;20207;-66
2023/01/22 04:45:27;;;;;;;27.63;21.20;;;0.10;99.90;;;;;;4993478;28;20628;-66
2023/01/22 04:47:53;;;;;;;26.43;20.07;;;0.10;99.90;;;;;;4994273;28;20263;-66
2023/01/22 04:50:21;;;;;;;29.67;21.40;;;0.10;99.90;;;;;;4993568;28;20252;-66
2023/01/22 04:52:49;;;;;;;26.50;21.40;;;0.10;99.90;;;;;;4997290;28;20228;-66
2023/01/22 04:55:15;;;;;;;27.57;21.13;;;0.10;99.90;;;;;;4997164;28;20246;-66
2023/01/22 04:57:41;;;;;;;30.67;22.03;;;0.10;99.90;;;;;;4997451;28;20680;-66
2023/01/22 05:00:09;;;;;;;27.10;20.20;;;0.10;99.90;;;;;;4997015;28;20187;-66
2023/01/22 05:02:34;;;;;;;33.20;21.87;;;0.10;99.90;;;;;;5012016;28;20188;-66
2023/01/22 05:05:00;;;;;;;27.53;20.83;;;0.10;99.90;;;;;;4996830;28;20208;-66
2023/01/22 05:07:26;;;;;;;27.57;21.17;;;0.00;99.90;;;;;;4996970;28;20219;-66
2023/01/22 05:09:52;;;;;;;27.73;20.80;;;0.00;99.90;;;;;;5011901;28;20283;-67
2023/01/22 05:12:17;;;;;;;26.97;20.27;;;0.00;99.90;;;;;;4996907;28;20185;-65
2023/01/22 05:14:43;;;;;;;30.77;21.73;;;0.00;99.90;;;;;;5011803;28;20688;-64
2023/01/22 05:17:09;;;;;;;29.07;20.87;;;0.00;99.90;;;;;;4996498;28;20646;-64
2023/01/22 05:19:36;;;;;;;28.27;20.83;;;0.10;99.90;;;;;;4997186;28;20272;-64
2023/01/22 05:22:02;;;;;;;28.73;21.70;;;0.10;99.90;;;;;;4996624;28;20173;-64
2023/01/22 05:24:30;;;;;;;30.10;21.13;;;0.10;99.90;;;;;;4996336;28;20196;-64
2023/01/22 05:26:59;;;;;;;28.60;21.50;;;0.00;99.90;;;;;;4996386;28;20231;-64
2023/01/22 05:29:26;;;;;;;30.93;21.80;;;0.00;99.90;;;;;;4996492;28;20180;-64
2023/01/22 05:31:56;;;;;;;29.13;21.70;;;0.00;99.90;;;;;;4996369;28;20200;-64
2023/01/22 05:34:22;;;;;;;30.70;21.53;;;0.00;99.90;;;;;;4996331;28;20224;-64
2023/01/22 05:36:58;;;;;;;29.83;21.43;;;0.00;99.90;;;;;;4996456;28;20658;-64
2023/01/22 05:39:24;;;;;;;29.57;20.57;;;0.10;99.90;;;;;;4996486;28;20176;-64
2023/01/22 05:41:55;;;;;;;30.20;21.47;;;0.10;99.90;;;;;;4995142;28;20188;-64
2023/01/22 05:44:21;;;;;;;29.97;21.13;;;0.10;99.90;;;;;;4994845;28;20677;-64
2023/01/22 05:46:47;;;;;;;28.97;21.00;;;0.10;99.90;;;;;;4996003;28;20207;-64
2023/01/22 05:49:13;;;;;;;31.10;22.07;;;0.00;99.90;;;;;;4996131;28;20181;-64
2023/01/22 05:51:39;;;;;;;29.93;21.50;;;0.10;99.90;;;;;;4996301;28;20709;-64
2023/01/22 05:54:05;;;;;;;32.43;22.60;;;0.10;99.90;;;;;;4994677;28;20208;-66
2023/01/22 05:56:40;;;;;;;26.50;21.43;;;0.10;99.90;;;;;;4995006;28;20196;-66
2023/01/22 05:59:09;;;;;;;28.87;21.43;;;0.10;99.90;;;;;;4996836;28;20262;-66
2023/01/22 06:01:34;;;;;;;30.17;21.90;;;0.10;99.90;;;;;;4996103;28;20245;-65
2023/01/22 06:04:03;;;;;;;27.70;21.23;;;0.10;99.90;;;;;;4995840;28;20296;-66
2023/01/22 06:06:31;;;;;;;28.57;21.53;;;0.10;99.90;;;;;;4995651;28;20205;-66
2023/01/22 06:09:00;;;;;;;32.30;22.10;;;0.10;99.90;;;;;;4995808;28;20700;-65
2023/01/22 06:11:27;;;;;;;31.47;21.53;;;0.10;99.90;;;;;;4995693;28;20172;-65
2023/01/22 06:13:53;;;;;;;27.70;20.27;;;0.10;99.90;;;;;;4995909;28;20248;-65
2023/01/22 06:16:19;;;;;;;31.10;22.40;;;0.10;99.90;;;;;;4995575;28;20189;-65
2023/01/22 06:18:45;;;;;;;30.20;21.40;;;0.10;99.90;;;;;;4995599;28;20602;-65
2023/01/22 06:21:11;;;;;;;32.80;23.37;;;0.10;99.90;;;;;;4995951;28;20193;-66
2023/01/22 06:23:37;;;;;;;30.60;22.23;;;0.10;99.90;;;;;;4994356;28;20543;-66
2023/01/22 06:26:11;;;;;;;31.13;22.33;;;0.20;99.90;;;;;;4995326;28;20200;-66
2023/01/22 06:28:42;;;;;;;28.70;21.17;;;0.10;99.90;;;;;;4994343;28;20574;-66
2023/01/22 06:31:12;;;;;;;30.37;21.23;;;0.10;99.90;;;;;;4995491;28;20173;-66
2023/01/22 06:33:40;;;;;;;28.77;20.90;;;0.10;99.90;;;;;;4995263;28;20203;-66
2023/01/22 06:36:12;;;;;;;29.83;20.30;;;0.10;99.90;;;;;;4995594;28;20156;-66
2023/01/22 06:38:42;;;;;;;30.10;20.50;;;0.10;99.90;;;;;;4995124;28;20165;-66
2023/01/22 06:41:11;;;;;;;28.93;19.83;;;0.10;99.90;;;;;;4993868;28;20186;-67
2023/01/22 06:43:39;;;;;;;27.53;20.73;;;0.10;99.90;;;;;;4995056;28;20212;-66
2023/01/22 06:46:08;;;;;;;25.13;19.60;;;0.10;99.90;;;;;;4994844;28;20761;-67
2023/01/22 06:48:42;;;;;;;28.07;19.90;;;0.10;99.90;;;;;;4995241;28;20584;-66
2023/01/22 06:51:09;;;;;;;26.23;20.27;;;0.10;99.90;;;;;;5010011;28;20179;-66
2023/01/22 06:53:44;;;;;;;26.00;19.83;;;0.10;99.90;;;;;;4994676;28;20250;-66
2023/01/22 06:56:18;;;;;;;26.77;19.27;;;0.10;99.90;;;;;;4995161;28;20171;-66
2023/01/22 06:58:44;;;;;;;26.23;20.33;;;0.10;99.90;;;;;;4995325;28;20157;-66
2023/01/22 07:01:16;;;;;;;26.53;19.97;;;0.10;99.90;;;;;;4995468;28;20270;-66
2023/01/22 07:03:44;;;;;;;23.13;19.03;;;0.10;99.90;;;;;;4993422;28;20203;-66
2023/01/22 07:06:17;;;;;;;25.13;19.27;;;0.10;99.90;;;;;;4993299;28;20719;-66
2023/01/22 07:08:45;;;;;;;26.03;18.73;;;0.10;99.90;;;;;;5009646;28;20276;-66
2023/01/22 07:11:13;;;;;;;28.80;20.20;;;0.10;99.90;;;;;;4994532;28;20192;-67
2023/01/22 07:13:41;;;;;;;26.17;20.83;;;0.10;99.90;;;;;;4994166;28;20704;-67
2023/01/22 07:16:08;;;;;;;28.03;21.03;;;0.20;99.90;;;;;;4994395;28;20184;-66
2023/01/22 07:18:36;;;;;;;27.93;20.13;;;0.20;99.90;;;;;;4994817;28;20234;-66
2023/01/22 07:21:05;;;;;;;27.80;20.07;;;0.10;99.90;;;;;;4995622;28;20637;-67
2023/01/22 07:23:38;;;;;;;27.37;19.73;;;0.10;99.90;;;;;;4993000;28;20188;-64
2023/01/22 07:26:04;;;;;;;25.50;20.23;;;0.10;99.90;;;;;;5009548;28;20200;-66
2023/01/22 07:28:30;;;;;;;23.43;18.03;;;0.10;99.90;;;;;;4994419;28;20173;-67
2023/01/22 07:30:58;;;;;;;23.43;19.13;;;0.10;99.90;;;;;;5009499;28;20176;-66
2023/01/22 07:33:26;;;;;;;28.30;21.03;;;0.10;99.90;;;;;;4993061;28;20263;-66
2023/01/22 07:35:55;;;;;;;24.83;19.40;;;0.10;99.90;;;;;;4994333;28;20176;-66
2023/01/22 07:38:24;;;;;;;23.70;19.47;;;0.10;99.90;;;;;;4993045;28;20534;-66
2023/01/22 07:40:58;;;;;;;24.93;19.57;;;0.20;99.90;;;;;;4994001;28;20208;-66
2023/01/22 07:43:27;;;;;;;27.33;20.00;;;0.20;99.90;;;;;;4994106;28;20179;-66
2023/01/22 07:45:54;;;;;;;25.67;19.40;;;0.20;99.90;;;;;;5009201;28;20215;-66
2023/01/22 07:48:26;;;;;;;26.37;19.70;;;0.20;99.90;;;;;;4994481;28;20169;-66
2023/01/22 07:51:01;;;;;;;23.50;17.77;;;0.20;99.90;;;;;;4992840;28;20260;-66
2023/01/22 07:53:36;;;;;;;24.77;18.40;;;0.20;99.90;;;;;;4994289;28;20191;-66
2023/01/22 07:56:08;;;;;;;24.00;19.60;;;0.20;99.90;;;;;;4994086;28;20164;-67
2023/01/22 07:58:38;;;;;;;24.20;18.53;;;0.20;99.90;;;;;;4994064;28;20160;-66
2023/01/22 08:01:07;;;;;;;23.57;18.27;;;0.20;99.90;;;;;;4994082;28;20175;-66
2023/01/22 08:03:33;;;;;;;24.83;18.00;;;0.20;99.90;;;;;;4993933;28;20227;-66
2023/01/22 08:06:09;;;;;;;26.63;18.50;;;0.20;99.90;;;;;;4994070;28;20199;-66
2023/01/22 08:08:43;;;;;;;23.63;18.63;;;0.20;99.90;;;;;;4994138;28;20153;-66
2023/01/22 08:11:12;;;;;;;24.50;18.83;;;0.20;99.90;;;;;;4994639;28;20165;-66
2023/01/22 08:13:44;;;;;;;21.80;17.57;;;0.30;99.90;;;;;;4994384;28;20200;-66
2023/01/22 08:16:23;;;;;;;23.93;19.03;;;0.30;99.90;;;;;;4994388;28;20192;-67
2023/01/22 08:18:54;;;;;;;21.73;18.43;;;0.30;99.90;;;;;;4996297;28;20194;-66
2023/01/22 08:21:20;;;;;;;22.33;18.20;;;0.30;99.90;;;;;;5009683;28;20185;-64
2023/01/22 08:23:53;;;;;;;24.33;18.63;;;0.30;99.90;;;;;;4993942;28;20255;-63
2023/01/22 08:26:34;;;;;;;27.23;19.43;;;0.30;99.90;;;;;;4995499;28;20299;-64
2023/01/22 08:29:01;;;;;;;25.40;19.53;;;0.30;99.90;;;;;;4996674;28;20181;-66
2023/01/22 08:31:31;;;;;;;22.77;18.10;;;0.30;99.90;;;;;;4997489;28;20260;-66
2023/01/22 08:33:59;;;;;;;23.83;18.87;;;0.30;99.90;;;;;;5011947;28;20200;-66
2023/01/22 08:36:27;;;;;;;21.50;17.23;;;0.30;99.90;;;;;;5012539;28;20552;-66
2023/01/22 08:39:10;;;;;;;23.73;18.30;;;0.40;99.90;;;;;;4997205;28;20173;-66
2023/01/22 08:41:39;;;;;;;25.50;19.00;;;0.40;99.90;;;;;;4997235;28;20187;-66
2023/01/22 08:44:15;;;;;;;28.80;19.40;;;0.40;99.90;;;;;;5012084;28;20219;-66
2023/01/22 08:46:41;;;;;;;24.80;18.53;;;0.40;99.90;;;;;;5010285;28;20701;-66
2023/01/22 08:49:07;;;;;;;24.93;18.63;;;0.40;99.90;;;;;;4996023;28;20208;-66
2023/01/22 08:51:39;;;;;;;23.83;19.47;;;0.50;99.90;;;;;;5011827;28;20180;-66
2023/01/22 08:54:05;;;;;;;26.73;19.03;;;0.50;99.90;;;;;;4997353;28;20256;-66
2023/01/22 08:56:31;;;;;;;25.27;19.10;;;0.50;99.90;;;;;;4997108;28;20176;-65
2023/01/22 08:58:59;;;;;;;23.73;18.70;;;0.50;99.90;;;;;;4997043;28;20660;-65
2023/01/22 09:01:25;;;;;;;23.63;18.27;;;0.50;99.90;;;;;;4995884;28;20267;-65
2023/01/22 09:03:51;;;;;;;26.57;19.13;;;0.60;99.90;;;;;;4996788;28;20572;-65
2023/01/22 09:06:21;;;;;;;23.60;19.33;;;0.60;99.90;;;;;;4996991;28;20196;-65
2023/01/22 09:08:48;;;;;;;27.97;18.87;;;0.60;99.90;;;;;;4995286;28;20165;-65
2023/01/22 09:11:17;;;;;;;25.43;18.83;;;0.60;99.90;;;;;;4997298;28;20161;-65
2023/01/22 09:13:45;;;;;;;22.37;18.67;;;0.70;99.90;;;;;;4996591;28;20196;-65
2023/01/22 09:16:11;;;;;;;25.27;18.93;;;0.70;99.90;;;;;;5011649;28;20196;-65
2023/01/22 09:18:38;;;;;;;25.93;19.43;;;0.70;99.90;;;;;;4995214;28;20271;-65
2023/01/22 09:21:05;;;;;;;23.87;18.83;;;0.70;99.90;;;;;;4996520;28;20179;-65
2023/01/22 09:23:31;;;;;;;24.27;18.77;;;0.70;99.90;;;;;;4996388;28;20272;-65
2023/01/22 09:26:02;;;;;;;24.17;18.77;;;0.70;99.90;;;;;;4996246;28;20192;-65
2023/01/22 09:28:30;;;;;;;21.77;17.70;;;0.70;99.90;;;;;;4997022;28;20618;-65
2023/01/22 09:30:59;;;;;;;23.17;18.00;;;0.70;99.90;;;;;;4996210;28;20545;-64
2023/01/22 09:33:27;;;;;;;25.23;18.67;;;0.70;99.90;;;;;;4996744;28;20704;-65
2023/01/22 09:36:15;;;;;;;23.33;17.40;;;0.80;99.90;;;;;;4996290;28;20238;-65
2023/01/22 09:38:43;;;;;;;25.03;19.40;;;0.80;99.90;;;;;;4996047;28;20176;-65
2023/01/22 09:41:36;;;;;;;24.43;18.97;;;0.90;99.90;;;;;;4996129;28;20188;-65
2023/01/22 09:44:37;;;;;;;27.43;19.97;;;0.90;99.90;;;;;;5011228;28;20689;-65
2023/01/22 09:47:14;;;;;;;24.83;19.03;;;0.90;99.90;;;;;;4996024;28;20204;-66
2023/01/22 09:50:11;;;;;;;27.10;19.83;;;0.90;99.90;;;;;;4996459;28;20239;-66
2023/01/22 09:52:39;;;;;;;28.13;19.40;;;0.90;99.90;;;;;;4969152;28;20191;-66
2023/01/22 09:55:12;;;;;;;24.77;19.17;;;0.90;99.90;;;;;;4995761;28;20203;-66
2023/01/22 09:57:48;;;;;;;25.77;20.03;;;0.90;99.90;;;;;;4995828;28;20188;-66
2023/01/22 10:00:45;;;;;;;31.27;21.50;;;0.90;99.90;;;;;;4996158;28;20164;-66
2023/01/22 10:03:24;;;;;;;24.73;18.87;;;0.90;99.90;;;;;;4990749;28;20196;-66
2023/01/22 10:06:01;;;;;;;25.13;19.43;;;0.90;99.90;;;;;;4996096;28;20195;-64
2023/01/22 10:08:48;;;;;;;29.73;19.67;;;0.90;99.90;;;;;;4995709;28;20617;-64
2023/01/22 10:11:17;;;;;;;25.63;20.17;;;1.00;99.90;;;;;;4995478;28;20173;-64
2023/01/22 10:13:43;;;;;;;30.93;21.23;;;1.00;99.90;;;;;;4995422;28;20189;-64
2023/01/22 10:16:11;;;;;;;29.03;22.00;;;1.00;99.90;;;;;;4995457;28;20192;-64
2023/01/22 10:18:37;;;;;;;27.20;19.27;;;1.00;99.90;;;;;;4995547;28;20173;-64
2023/01/22 10:21:20;;;;;;;27.83;21.33;;;1.00;99.90;;;;;;4995946;28;20179;-64
2023/01/22 10:23:48;;;;;;;27.50;20.70;;;1.00;99.90;;;;;;4995524;28;20192;-64
2023/01/22 10:26:17;;;;;;;25.80;19.37;;;1.10;99.90;;;;;;4995171;28;20201;-65
2023/01/22 10:28:48;;;;;;;25.37;19.10;;;1.10;99.90;;;;;;4994252;28;20704;-64
2023/01/22 10:31:28;;;;;;;24.70;19.07;;;1.10;99.90;;;;;;4995866;28;20157;-64
2023/01/22 10:34:01;;;;;;;22.57;18.50;;;1.10;99.90;;;;;;4995145;28;20695;-65
2023/01/22 10:36:30;;;;;;;22.53;18.37;;;1.10;99.90;;;;;;5010441;28;20609;-65
2023/01/22 10:39:12;;;;;;;26.17;19.03;;;1.10;99.90;;;;;;5009776;28;20203;-65
2023/01/22 10:41:43;;;;;;;24.70;19.60;;;1.10;99.90;;;;;;5010093;28;20180;-65
2023/01/22 10:44:23;;;;;;;25.47;19.80;;;1.10;99.90;;;;;;4994057;28;20287;-65
2023/01/22 10:46:52;;;;;;;27.27;18.77;;;1.10;99.90;;;;;;5009955;28;20212;-64
2023/01/22 10:49:25;;;;;;;24.40;19.07;;;1.20;99.90;;;;;;4994088;28;20176;-64
2023/01/22 10:51:55;;;;;;;30.10;20.00;;;1.30;99.90;;;;;;4993144;28;20549;-65
2023/01/22 10:54:59;;;;;;;23.70;18.40;;;1.30;99.90;;;;;;4993696;28;20204;-65
2023/01/22 10:57:36;;;;;;;23.03;18.57;;;1.30;99.90;;;;;;4993230;28;20196;-65
2023/01/22 11:00:14;;;;;;;22.63;17.90;;;1.30;99.90;;;;;;5010409;28;20187;-65
2023/01/22 11:02:46;;;;;;;23.33;18.10;;;1.20;99.90;;;;;;4993452;28;20202;-64
2023/01/22 11:05:35;;;;;;;21.53;17.43;;;1.20;99.90;;;;;;4993312;28;20285;-64
2023/01/22 11:08:26;;;;;;;21.90;17.83;;;1.20;99.90;;;;;;4995167;28;20180;-66
2023/01/22 11:10:58;;;;;;;22.30;18.47;;;1.20;99.90;;;;;;4993042;28;20176;-67
2023/01/22 11:13:45;;;;;;;22.33;17.37;;;1.20;99.90;;;;;;5009397;28;20169;-67
2023/01/22 11:16:25;;;;;;;22.17;17.20;;;1.20;99.90;;;;;;4993120;28;20196;-67
2023/01/22 11:19:19;;;;;;;21.17;18.17;;;1.20;99.90;;;;;;5009600;28;20187;-67
2023/01/22 11:21:54;;;;;;;22.00;17.13;;;1.20;99.90;;;;;;4994455;28;20172;-67
2023/01/22 11:24:48;;;;;;;21.17;16.77;;;1.20;99.90;;;;;;4994102;28;20193;-67
2023/01/22 11:27:41;;;;;;;22.17;16.60;;;1.20;99.90;;;;;;5009471;28;20192;-67
2023/01/22 11:30:49;;;;;;;22.73;17.43;;;1.20;99.90;;;;;;4993085;28;20522;-67
2023/01/22 11:33:41;;;;;;;23.07;17.23;;;1.20;99.90;;;;;;4993265;28;20641;-66
2023/01/22 11:36:20;;;;;;;25.43;18.47;;;1.20;99.90;;;;;;4994484;28;20614;-66
2023/01/22 11:38:54;;;;;;;21.83;17.10;;;1.20;99.90;;;;;;5009195;28;20173;-66
2023/01/22 11:41:46;;;;;;;21.50;16.67;;;1.20;99.90;;;;;;4992762;28;20176;-65
2023/01/22 11:44:15;;;;;;;21.50;17.23;;;1.20;99.90;;;;;;4983391;28;20216;-66
2023/01/22 11:47:10;;;;;;;25.70;19.50;;;1.20;99.90;;;;;;4994116;28;20215;-66
2023/01/22 11:49:39;;;;;;;22.63;17.30;;;1.20;99.90;;;;;;4992360;28;20206;-64
2023/01/22 11:52:20;;;;;;;22.63;16.67;;;1.20;99.90;;;;;;5008994;28;20184;-67
2023/01/22 11:54:52;;;;;;;34.57;17.97;;;1.20;99.90;;;;;;4993905;28;20223;-67
2023/01/22 11:57:42;;;;;;;21.13;16.67;;;1.20;99.90;;;;;;4993942;28;20527;-67
2023/01/22 12:00:17;;;;;;;21.17;16.73;;;1.30;99.90;;;;;;5010515;28;20231;-66
2023/01/22 12:03:01;;;;;;;21.83;16.33;;;1.30;99.90;;;;;;4998198;28;20183;-65
2023/01/22 12:05:38;;;;;;;24.67;17.77;;;1.30;99.90;;;;;;4998015;28;20200;-65
2023/01/22 12:08:23;;;;;;;22.63;16.03;;;1.30;99.90;;;;;;4997932;28;20629;-64
2023/01/22 12:11:45;;;;;;;23.23;17.30;;;1.30;99.90;;;;;;4997705;28;20173;-67
2023/01/22 12:14:30;;;;;;;25.23;17.50;;;1.30;99.90;;;;;;4976194;28;20203;-65
2023/01/22 12:17:10;;;;;;;22.90;17.00;;;1.30;99.90;;;;;;4976346;28;20197;-64
2023/01/22 12:19:46;;;;;;;22.10;17.10;;;1.30;99.90;;;;;;4973493;28;20193;-64
2023/01/22 12:22:34;;;;;;;22.73;18.10;;;1.20;99.90;;;;;;4978494;28;20165;-65
2023/01/22 12:25:18;;;;;;;24.50;18.47;;;1.20;99.90;;;;;;4978057;28;20207;-65
2023/01/22 12:28:07;;;;;;;23.47;18.00;;;1.30;99.90;;;;;;4978312;28;20164;-64
2023/01/22 12:31:09;;;;;;;22.23;17.47;;;1.30;99.90;;;;;;4978255;28;20500;-64
2023/01/22 12:33:39;;;;;;;23.77;18.07;;;1.30;99.90;;;;;;4976832;28;20208;-65
2023/01/22 12:36:08;;;;;;;23.80;18.10;;;1.20;99.90;;;;;;4976690;28;20169;-64
2023/01/22 12:38:40;;;;;;;26.80;17.60;;;1.30;99.90;;;;;;4977960;28;20201;-68
2023/01/22 12:41:36;;;;;;;21.53;17.03;;;1.20;99.90;;;;;;4977930;28;20226;-64
2023/01/22 12:44:11;;;;;;;26.87;18.57;;;1.30;99.90;;;;;;4977561;28;20195;-65
2023/01/22 12:46:58;;;;;;;24.63;18.07;;;1.20;99.90;;;;;;4992861;28;20215;-65
2023/01/22 12:49:25;;;;;;;24.97;18.70;;;1.30;99.90;;;;;;4997531;28;20169;-65
2023/01/22 12:51:53;;;;;;;23.90;17.83;;;1.20;99.90;;;;;;4997415;28;20187;-65
2023/01/22 12:54:25;;;;;;;25.73;18.97;;;1.30;99.90;;;;;;4997136;28;20192;-65
2023/01/22 12:56:56;;;;;;;25.17;18.27;;;1.30;99.90;;;;;;4995938;28;20184;-65
2023/01/22 12:59:34;;;;;;;29.17;18.40;;;1.30;99.90;;;;;;4997253;28;20157;-65
2023/01/22 13:02:37;;;;;;;27.73;20.53;;;1.30;99.90;;;;;;4997053;28;20234;-65